createdAt,value
2017-03-21T00:00:06.998Z,0
2017-03-21T00:00:47.483Z,0
2017-03-21T00:03:00.227Z,0
2017-03-21T00:03:40.715Z,0
2017-03-21T00:04:21.186Z,0
2017-03-21T00:05:01.687Z,0
2017-03-21T00:05:42.164Z,0
2017-03-21T00:06:22.643Z,0
2017-03-21T00:07:03.126Z,0
2017-03-21T00:07:43.616Z,0
2017-03-21T00:08:24.118Z,0
2017-03-21T00:09:04.609Z,0
2017-03-21T00:09:45.070Z,0
2017-03-21T00:10:25.550Z,0
2017-03-21T00:11:06.030Z,0
2017-03-21T00:11:46.506Z,0
2017-03-21T00:12:26.994Z,0
2017-03-21T00:13:07.487Z,0
2017-03-21T00:13:47.977Z,0
2017-03-21T00:14:28.470Z,0
2017-03-21T00:15:08.963Z,0
2017-03-21T00:15:49.438Z,0
2017-03-21T00:16:29.947Z,0
2017-03-21T00:17:10.411Z,0
2017-03-21T00:17:50.895Z,0
2017-03-21T00:18:31.386Z,0
2017-03-21T00:19:11.884Z,0
2017-03-21T00:19:52.363Z,0
2017-03-21T00:20:32.835Z,0
2017-03-21T00:21:13.312Z,0
2017-03-21T00:21:53.820Z,0
2017-03-21T00:22:34.275Z,0
2017-03-21T00:23:14.762Z,0
2017-03-21T00:23:55.248Z,0
2017-03-21T00:24:35.741Z,0
2017-03-21T00:25:16.234Z,0
2017-03-21T00:25:56.768Z,0
2017-03-21T00:26:37.250Z,0
2017-03-21T00:27:17.750Z,0
2017-03-21T00:27:58.244Z,0
2017-03-21T00:28:38.726Z,0
2017-03-21T00:29:19.198Z,0
2017-03-21T00:29:59.646Z,0
2017-03-21T00:30:40.129Z,0
2017-03-21T00:31:20.576Z,0
2017-03-21T00:32:01.052Z,0
2017-03-21T00:32:41.586Z,0
2017-03-21T00:33:22.054Z,0
2017-03-21T00:34:02.545Z,0
2017-03-21T00:34:43.021Z,0
2017-03-21T00:35:23.515Z,0
2017-03-21T00:36:03.987Z,0
2017-03-21T00:36:44.461Z,0
2017-03-21T00:37:24.954Z,0
2017-03-21T00:38:05.433Z,0
2017-03-21T00:38:45.897Z,0
2017-03-21T00:39:26.385Z,0
2017-03-21T00:40:06.863Z,0
2017-03-21T00:40:47.331Z,0
2017-03-21T00:41:27.820Z,0
2017-03-21T00:42:08.294Z,0
2017-03-21T00:42:48.775Z,0
2017-03-21T00:43:29.265Z,0
2017-03-21T00:44:09.759Z,0
2017-03-21T00:44:50.250Z,0
2017-03-21T00:45:30.731Z,0
2017-03-21T00:46:11.220Z,0
2017-03-21T00:46:51.687Z,0
2017-03-21T00:47:32.169Z,0
2017-03-21T00:48:12.650Z,0
2017-03-21T00:48:53.138Z,0
2017-03-21T00:49:33.662Z,0
2017-03-21T00:50:14.105Z,0
2017-03-21T00:50:54.581Z,0
2017-03-21T00:51:35.078Z,0
2017-03-21T00:52:15.563Z,0
2017-03-21T00:52:56.057Z,0
2017-03-21T00:53:36.549Z,0
2017-03-21T00:54:17.028Z,0
2017-03-21T00:54:57.501Z,0
2017-03-21T00:55:37.978Z,0
2017-03-21T00:56:18.465Z,0
2017-03-21T00:56:58.944Z,0
2017-03-21T00:57:39.429Z,0
2017-03-21T00:58:19.902Z,0
2017-03-21T00:59:00.386Z,0
2017-03-21T00:59:40.867Z,0
2017-03-21T01:00:21.366Z,0
2017-03-21T01:01:01.866Z,0
2017-03-21T01:01:42.345Z,0
2017-03-21T01:02:22.839Z,0
2017-03-21T01:03:03.312Z,0
2017-03-21T01:03:43.779Z,0
2017-03-21T01:04:24.240Z,0
2017-03-21T01:05:04.722Z,0
2017-03-21T01:05:45.221Z,0
2017-03-21T01:06:25.701Z,0
2017-03-21T01:07:06.167Z,0
2017-03-21T01:07:46.647Z,0
2017-03-21T01:08:27.139Z,0
2017-03-21T01:09:07.632Z,0
2017-03-21T01:09:48.107Z,0
2017-03-21T01:10:28.585Z,0
2017-03-21T01:11:09.076Z,0
2017-03-21T01:11:49.573Z,0
2017-03-21T01:12:30.063Z,0
2017-03-21T01:13:10.553Z,0
2017-03-21T01:13:51.047Z,0
2017-03-21T01:14:31.541Z,0
2017-03-21T01:15:12.063Z,0
2017-03-21T01:15:52.524Z,0
2017-03-21T01:16:33.002Z,0
2017-03-21T01:17:13.486Z,0
2017-03-21T01:17:53.999Z,0
2017-03-21T01:18:34.456Z,0
2017-03-21T01:19:14.996Z,0
2017-03-21T01:19:55.532Z,0
2017-03-21T01:20:36.009Z,0
2017-03-21T01:21:16.497Z,0
2017-03-21T01:21:56.988Z,0
2017-03-21T01:22:37.476Z,0
2017-03-21T01:23:17.972Z,0
2017-03-21T01:23:58.468Z,0
2017-03-21T01:24:38.953Z,0
2017-03-21T01:25:19.445Z,0
2017-03-21T01:25:59.945Z,0
2017-03-21T01:26:40.415Z,0
2017-03-21T01:27:20.909Z,0
2017-03-21T01:28:01.420Z,0
2017-03-21T01:28:41.887Z,0
2017-03-21T01:29:22.341Z,0
2017-03-21T01:30:02.827Z,0
2017-03-21T01:30:43.319Z,0
2017-03-21T01:31:23.807Z,0
2017-03-21T01:32:04.277Z,0
2017-03-21T01:32:44.783Z,0
2017-03-21T01:33:25.265Z,0
2017-03-21T01:34:05.751Z,0
2017-03-21T01:34:46.264Z,0
2017-03-21T01:35:26.732Z,0
2017-03-21T01:36:07.226Z,0
2017-03-21T01:36:47.716Z,0
2017-03-21T01:37:28.204Z,0
2017-03-21T01:38:08.668Z,0
2017-03-21T01:38:49.147Z,0
2017-03-21T01:39:29.632Z,0
2017-03-21T01:40:10.139Z,0
2017-03-21T01:40:50.629Z,0
2017-03-21T01:41:31.125Z,0
2017-03-21T01:42:11.609Z,0
2017-03-21T01:42:52.106Z,0
2017-03-21T01:43:32.590Z,0
2017-03-21T01:44:13.092Z,0
2017-03-21T01:44:53.567Z,0
2017-03-21T01:45:34.047Z,0
2017-03-21T01:46:14.511Z,0
2017-03-21T01:46:55.000Z,0
2017-03-21T01:47:35.488Z,0
2017-03-21T01:48:15.977Z,0
2017-03-21T01:48:56.480Z,0
2017-03-21T01:49:36.971Z,0
2017-03-21T01:50:17.451Z,0
2017-03-21T01:50:57.924Z,0
2017-03-21T01:51:38.377Z,0
2017-03-21T01:52:18.832Z,0
2017-03-21T01:52:59.259Z,0
2017-03-21T01:53:39.727Z,0
2017-03-21T01:54:20.210Z,0
2017-03-21T01:55:00.662Z,0
2017-03-21T01:55:41.130Z,0
2017-03-21T01:56:21.591Z,0
2017-03-21T01:57:02.054Z,0
2017-03-21T01:57:42.510Z,0
2017-03-21T01:58:22.971Z,0
2017-03-21T01:59:03.420Z,0
2017-03-21T01:59:43.849Z,0
2017-03-21T02:00:24.304Z,0
2017-03-21T02:01:04.748Z,0
2017-03-21T02:01:45.214Z,0
2017-03-21T02:02:25.673Z,0
2017-03-21T02:03:06.093Z,0
2017-03-21T02:05:34.032Z,0
2017-03-21T02:06:14.504Z,0
2017-03-21T02:06:54.986Z,0
2017-03-21T02:07:35.480Z,0
2017-03-21T02:08:15.969Z,0
2017-03-21T02:08:56.448Z,0
2017-03-21T02:09:36.928Z,0
2017-03-21T02:10:17.411Z,0
2017-03-21T02:10:57.905Z,0
2017-03-21T02:11:38.445Z,0
2017-03-21T02:12:18.903Z,0
2017-03-21T02:12:59.384Z,0
2017-03-21T02:13:39.877Z,0
2017-03-21T02:14:20.336Z,0
2017-03-21T02:15:00.803Z,0
2017-03-21T02:15:41.288Z,0
2017-03-21T02:16:21.773Z,0
2017-03-21T02:17:02.262Z,0
2017-03-21T02:17:42.744Z,0
2017-03-21T02:18:23.239Z,0
2017-03-21T02:19:03.735Z,0
2017-03-21T02:19:44.231Z,0
2017-03-21T02:20:24.727Z,0
2017-03-21T02:21:05.213Z,0
2017-03-21T02:21:45.684Z,0
2017-03-21T02:22:26.173Z,0
2017-03-21T02:23:06.665Z,0
2017-03-21T02:23:47.162Z,0
2017-03-21T02:24:27.647Z,0
2017-03-21T02:25:08.129Z,0
2017-03-21T02:25:48.618Z,0
2017-03-21T02:26:29.089Z,0
2017-03-21T02:27:09.571Z,0
2017-03-21T02:27:50.038Z,0
2017-03-21T02:28:30.534Z,0
2017-03-21T02:29:10.994Z,0
2017-03-21T02:29:51.479Z,0
2017-03-21T02:30:31.935Z,0
2017-03-21T02:31:12.364Z,0
2017-03-21T02:31:52.849Z,0
2017-03-21T02:32:33.328Z,0
2017-03-21T02:33:13.818Z,0
2017-03-21T02:33:54.300Z,0
2017-03-21T02:34:34.785Z,0
2017-03-21T02:35:15.260Z,0
2017-03-21T02:35:55.738Z,0
2017-03-21T02:36:36.235Z,0
2017-03-21T02:37:16.760Z,0
2017-03-21T02:37:57.244Z,0
2017-03-21T02:38:37.730Z,0
2017-03-21T02:39:18.200Z,0
2017-03-21T02:39:58.678Z,0
2017-03-21T02:40:39.168Z,0
2017-03-21T02:41:19.654Z,0
2017-03-21T02:42:00.148Z,0
2017-03-21T02:42:40.625Z,0
2017-03-21T02:43:21.106Z,0
2017-03-21T02:44:01.598Z,0
2017-03-21T02:44:42.061Z,0
2017-03-21T02:45:22.528Z,0
2017-03-21T02:46:03.006Z,0
2017-03-21T02:46:43.495Z,0
2017-03-21T02:47:23.980Z,0
2017-03-21T02:48:04.449Z,0
2017-03-21T02:48:44.936Z,0
2017-03-21T02:49:25.397Z,0
2017-03-21T02:50:05.870Z,0
2017-03-21T02:50:46.379Z,0
2017-03-21T02:51:26.855Z,0
2017-03-21T02:52:07.336Z,0
2017-03-21T02:52:47.852Z,0
2017-03-21T02:53:28.322Z,0
2017-03-21T02:54:08.813Z,0
2017-03-21T02:54:49.284Z,0
2017-03-21T02:55:29.780Z,0
2017-03-21T02:56:10.260Z,0
2017-03-21T02:56:50.745Z,0
2017-03-21T02:57:31.206Z,0
2017-03-21T02:58:11.687Z,0
2017-03-21T02:58:52.184Z,0
2017-03-21T02:59:32.676Z,0
2017-03-21T03:00:13.160Z,0
2017-03-21T03:00:53.664Z,0
2017-03-21T03:01:34.143Z,0
2017-03-21T03:02:14.616Z,0
2017-03-21T03:02:55.112Z,0
2017-03-21T03:03:35.603Z,0
2017-03-21T03:04:16.095Z,0
2017-03-21T03:04:56.554Z,0
2017-03-21T03:05:37.033Z,0
2017-03-21T03:06:17.521Z,0
2017-03-21T03:06:58.009Z,0
2017-03-21T03:07:38.488Z,0
2017-03-21T03:08:18.984Z,0
2017-03-21T03:08:59.490Z,0
2017-03-21T03:09:39.959Z,0
2017-03-21T03:10:20.436Z,0
2017-03-21T03:11:00.920Z,0
2017-03-21T03:11:41.403Z,0
2017-03-21T03:12:21.895Z,0
2017-03-21T03:13:02.357Z,0
2017-03-21T03:13:42.819Z,0
2017-03-21T03:14:23.278Z,0
2017-03-21T03:15:03.748Z,0
2017-03-21T03:15:44.241Z,0
2017-03-21T03:16:24.715Z,0
2017-03-21T03:17:05.205Z,0
2017-03-21T03:17:45.670Z,0
2017-03-21T03:18:26.168Z,0
2017-03-21T03:19:06.641Z,0
2017-03-21T03:19:47.138Z,0
2017-03-21T03:20:27.634Z,0
2017-03-21T03:21:08.121Z,0
2017-03-21T03:21:48.598Z,0
2017-03-21T03:22:29.077Z,0
2017-03-21T03:23:09.552Z,0
2017-03-21T03:23:50.048Z,0
2017-03-21T03:24:30.517Z,0
2017-03-21T03:26:48.315Z,0
2017-03-21T03:27:28.789Z,0
2017-03-21T03:28:09.299Z,0
2017-03-21T03:28:49.782Z,0
2017-03-21T03:29:30.269Z,0
2017-03-21T03:30:10.760Z,0
2017-03-21T03:30:51.244Z,0
2017-03-21T03:31:31.725Z,0
2017-03-21T03:32:12.209Z,0
2017-03-21T03:32:52.735Z,0
2017-03-21T03:33:33.183Z,0
2017-03-21T03:34:13.676Z,0
2017-03-21T03:34:54.137Z,0
2017-03-21T03:35:34.644Z,0
2017-03-21T03:36:15.129Z,0
2017-03-21T03:36:55.623Z,0
2017-03-21T03:37:36.127Z,0
2017-03-21T03:38:16.624Z,0
2017-03-21T03:38:57.108Z,0
2017-03-21T03:39:37.603Z,0
2017-03-21T03:40:18.099Z,0
2017-03-21T03:40:58.584Z,0
2017-03-21T03:41:39.077Z,0
2017-03-21T03:42:19.564Z,0
2017-03-21T03:43:00.073Z,0
2017-03-21T03:43:40.555Z,0
2017-03-21T03:45:58.366Z,0
2017-03-21T03:46:38.839Z,0
2017-03-21T03:47:19.345Z,0
2017-03-21T03:47:59.830Z,0
2017-03-21T03:48:40.311Z,0
2017-03-21T03:49:20.810Z,0
2017-03-21T03:50:01.297Z,0
2017-03-21T03:50:41.790Z,0
2017-03-21T03:51:22.295Z,0
2017-03-21T03:52:02.763Z,0
2017-03-21T03:52:43.241Z,0
2017-03-21T03:53:23.732Z,0
2017-03-21T03:54:04.207Z,0
2017-03-21T03:54:44.687Z,0
2017-03-21T03:55:25.164Z,0
2017-03-21T03:56:05.650Z,0
2017-03-21T03:56:46.141Z,0
2017-03-21T03:57:26.627Z,0
2017-03-21T03:58:07.098Z,0
2017-03-21T03:58:47.584Z,0
2017-03-21T03:59:28.078Z,0
2017-03-21T04:00:08.551Z,0
2017-03-21T04:02:06.190Z,0
2017-03-21T04:02:46.635Z,0
2017-03-21T04:03:27.123Z,0
2017-03-21T04:04:07.619Z,0
2017-03-21T04:04:48.111Z,0
2017-03-21T04:05:28.611Z,0
2017-03-21T04:06:09.094Z,0
2017-03-21T04:06:49.569Z,0
2017-03-21T04:07:30.046Z,0
2017-03-21T04:08:10.550Z,0
2017-03-21T04:08:51.038Z,0
2017-03-21T04:09:31.536Z,0
2017-03-21T04:10:12.013Z,0
2017-03-21T04:10:52.518Z,0
2017-03-21T04:11:32.987Z,0
2017-03-21T04:12:13.466Z,0
2017-03-21T04:12:53.967Z,0
2017-03-21T04:13:34.450Z,0
2017-03-21T04:14:14.954Z,0
2017-03-21T04:14:55.415Z,0
2017-03-21T04:15:35.908Z,0
2017-03-21T04:17:33.552Z,0
2017-03-21T04:18:14.005Z,0
2017-03-21T04:18:54.492Z,0
2017-03-21T04:19:34.979Z,0
2017-03-21T04:20:15.473Z,0
2017-03-21T04:20:55.971Z,0
2017-03-21T04:21:36.465Z,0
2017-03-21T04:22:16.955Z,0
2017-03-21T04:22:57.437Z,0
2017-03-21T04:23:37.947Z,0
2017-03-21T04:24:18.412Z,0
2017-03-21T04:24:58.893Z,0
2017-03-21T04:25:39.371Z,0
2017-03-21T04:26:19.877Z,0
2017-03-21T04:27:00.362Z,0
2017-03-21T04:27:40.837Z,0
2017-03-21T04:28:21.322Z,0
2017-03-21T04:29:01.802Z,0
2017-03-21T04:29:42.270Z,0
2017-03-21T04:30:22.764Z,0
2017-03-21T04:31:03.236Z,0
2017-03-21T04:31:43.735Z,0
2017-03-21T04:32:24.215Z,0
2017-03-21T04:33:04.698Z,0
2017-03-21T04:33:45.195Z,0
2017-03-21T04:34:25.671Z,0
2017-03-21T04:35:06.137Z,0
2017-03-21T04:35:46.605Z,0
2017-03-21T04:36:27.093Z,0
2017-03-21T04:37:07.578Z,0
2017-03-21T04:37:48.063Z,0
2017-03-21T04:38:28.563Z,0
2017-03-21T04:39:09.028Z,0
2017-03-21T04:39:49.560Z,0
2017-03-21T04:40:30.040Z,0
2017-03-21T04:41:10.516Z,0
2017-03-21T04:41:50.955Z,0
2017-03-21T04:42:31.429Z,0
2017-03-21T04:43:11.945Z,0
2017-03-21T04:43:52.440Z,0
2017-03-21T04:44:32.930Z,0
2017-03-21T04:45:13.426Z,0
2017-03-21T04:45:53.910Z,0
2017-03-21T04:46:34.377Z,0
2017-03-21T04:47:14.856Z,0
2017-03-21T04:47:55.357Z,0
2017-03-21T04:48:35.879Z,0
2017-03-21T04:49:16.351Z,0
2017-03-21T04:49:56.828Z,0
2017-03-21T04:50:37.296Z,0
2017-03-21T04:51:17.788Z,0
2017-03-21T04:51:58.276Z,0
2017-03-21T04:52:38.770Z,0
2017-03-21T04:53:19.257Z,0
2017-03-21T04:53:59.739Z,0
2017-03-21T04:54:40.249Z,0
2017-03-21T04:55:20.722Z,0
2017-03-21T04:56:01.201Z,0
2017-03-21T04:56:41.693Z,0
2017-03-21T04:57:22.182Z,0
2017-03-21T04:58:02.678Z,0
2017-03-21T04:58:43.158Z,0
2017-03-21T04:59:23.647Z,0
2017-03-21T05:00:04.122Z,0
2017-03-21T05:00:44.610Z,0
2017-03-21T05:01:25.102Z,0
2017-03-21T05:02:05.583Z,0
2017-03-21T05:02:46.058Z,0
2017-03-21T05:03:26.545Z,0
2017-03-21T05:04:07.045Z,0
2017-03-21T05:04:47.525Z,4
2017-03-21T05:05:28.024Z,4
2017-03-21T05:06:08.524Z,4
2017-03-21T05:06:49.001Z,4
2017-03-21T05:07:29.491Z,0
2017-03-21T05:08:09.961Z,4
2017-03-21T05:08:50.460Z,4
2017-03-21T05:09:30.933Z,4
2017-03-21T05:10:11.419Z,4
2017-03-21T05:10:51.900Z,8
2017-03-21T05:11:32.392Z,4
2017-03-21T05:12:12.868Z,8
2017-03-21T05:12:53.346Z,8
2017-03-21T05:13:33.828Z,8
2017-03-21T05:14:14.272Z,12
2017-03-21T05:16:32.068Z,16
2017-03-21T05:17:12.565Z,12
2017-03-21T05:17:53.053Z,16
2017-03-21T05:18:33.572Z,20
2017-03-21T05:19:14.015Z,20
2017-03-21T05:19:54.509Z,24
2017-03-21T05:20:34.989Z,24
2017-03-21T05:21:15.502Z,24
2017-03-21T05:21:55.979Z,28
2017-03-21T05:22:36.455Z,28
2017-03-21T05:23:16.942Z,32
2017-03-21T05:23:57.402Z,36
2017-03-21T05:24:37.899Z,40
2017-03-21T05:25:18.368Z,40
2017-03-21T05:25:58.884Z,44
2017-03-21T05:26:39.422Z,48
2017-03-21T05:27:19.874Z,56
2017-03-21T05:28:00.328Z,60
2017-03-21T05:28:40.810Z,68
2017-03-21T05:31:13.810Z,92
2017-03-21T05:31:54.292Z,104
2017-03-21T05:32:34.836Z,112
2017-03-21T05:33:15.294Z,120
2017-03-21T05:33:55.810Z,128
2017-03-21T05:34:36.294Z,140
2017-03-21T05:35:16.765Z,148
2017-03-21T05:35:57.246Z,152
2017-03-21T05:36:37.767Z,164
2017-03-21T05:37:18.327Z,172
2017-03-21T05:37:58.855Z,184
2017-03-21T05:38:39.370Z,188
2017-03-21T05:39:19.845Z,200
2017-03-21T05:40:00.319Z,212
2017-03-21T05:40:40.837Z,224
2017-03-21T05:41:21.321Z,232
2017-03-21T05:42:01.824Z,240
2017-03-21T05:42:42.308Z,244
2017-03-21T05:43:22.802Z,252
2017-03-21T05:44:03.286Z,268
2017-03-21T05:44:43.776Z,276
2017-03-21T05:45:24.279Z,292
2017-03-21T05:46:04.755Z,312
2017-03-21T05:46:45.236Z,328
2017-03-21T05:47:25.717Z,344
2017-03-21T05:48:06.189Z,368
2017-03-21T05:48:46.666Z,392
2017-03-21T05:49:27.156Z,412
2017-03-21T05:50:07.652Z,436
2017-03-21T05:50:48.128Z,444
2017-03-21T05:51:28.607Z,452
2017-03-21T05:52:09.083Z,468
2017-03-21T05:52:49.599Z,480
2017-03-21T05:53:30.062Z,496
2017-03-21T05:54:10.540Z,508
2017-03-21T05:54:51.021Z,516
2017-03-21T05:55:31.518Z,520
2017-03-21T05:56:12.015Z,528
2017-03-21T05:56:52.512Z,532
2017-03-21T05:57:32.992Z,544
2017-03-21T05:58:13.470Z,552
2017-03-21T05:58:53.953Z,556
2017-03-21T05:59:34.441Z,572
2017-03-21T06:00:14.930Z,576
2017-03-21T06:00:55.379Z,596
2017-03-21T06:01:35.816Z,616
2017-03-21T06:02:16.272Z,640
2017-03-21T06:02:56.758Z,664
2017-03-21T06:03:37.234Z,688
2017-03-21T06:04:17.682Z,708
2017-03-21T06:04:58.177Z,724
2017-03-21T06:05:38.661Z,732
2017-03-21T06:06:19.154Z,744
2017-03-21T06:06:59.631Z,748
2017-03-21T06:07:40.116Z,764
2017-03-21T06:08:20.604Z,788
2017-03-21T06:09:01.089Z,824
2017-03-21T06:09:41.565Z,848
2017-03-21T06:10:22.043Z,872
2017-03-21T06:11:02.534Z,908
2017-03-21T06:11:43.026Z,972
2017-03-21T06:12:23.492Z,1048
2017-03-21T06:13:03.964Z,1116
2017-03-21T06:13:44.475Z,1184
2017-03-21T06:14:24.964Z,1264
2017-03-21T06:15:05.437Z,1348
2017-03-21T06:15:45.900Z,1448
2017-03-21T06:16:26.438Z,1576
2017-03-21T06:17:06.915Z,1716
2017-03-21T06:17:47.391Z,1856
2017-03-21T06:18:27.864Z,1984
2017-03-21T06:19:08.320Z,2108
2017-03-21T06:19:48.788Z,2172
2017-03-21T06:20:29.294Z,2172
2017-03-21T06:21:09.786Z,2128
2017-03-21T06:21:50.297Z,2100
2017-03-21T06:22:30.779Z,2124
2017-03-21T06:23:11.264Z,2140
2017-03-21T06:23:51.754Z,2188
2017-03-21T06:24:32.242Z,2244
2017-03-21T06:25:12.701Z,2280
2017-03-21T06:25:53.181Z,2256
2017-03-21T06:26:33.654Z,2232
2017-03-21T06:27:14.148Z,2232
2017-03-21T06:27:54.643Z,2276
2017-03-21T06:28:35.107Z,2380
2017-03-21T06:29:15.590Z,2512
2017-03-21T06:29:56.055Z,2636
2017-03-21T06:30:36.566Z,2708
2017-03-21T06:31:17.079Z,2740
2017-03-21T06:31:57.594Z,2792
2017-03-21T06:32:38.087Z,2808
2017-03-21T06:33:18.574Z,2784
2017-03-21T06:33:59.079Z,2740
2017-03-21T06:34:39.565Z,2704
2017-03-21T06:35:20.054Z,2672
2017-03-21T06:36:00.547Z,2636
2017-03-21T06:36:41.037Z,2624
2017-03-21T06:37:21.519Z,2596
2017-03-21T06:38:02.011Z,2548
2017-03-21T06:38:42.477Z,2500
2017-03-21T06:39:22.955Z,2504
2017-03-21T06:40:03.435Z,2548
2017-03-21T06:40:43.937Z,2604
2017-03-21T06:41:24.407Z,2616
2017-03-21T06:42:04.907Z,2580
2017-03-21T06:42:45.350Z,2536
2017-03-21T06:43:25.814Z,2584
2017-03-21T06:45:43.615Z,2928
2017-03-21T06:46:24.116Z,2880
2017-03-21T06:47:04.596Z,2804
2017-03-21T06:47:45.086Z,2724
2017-03-21T06:48:25.603Z,2632
2017-03-21T06:49:06.091Z,2648
2017-03-21T06:49:46.548Z,2724
2017-03-21T06:50:27.050Z,2892
2017-03-21T06:51:07.536Z,3056
2017-03-21T06:51:48.023Z,3160
2017-03-21T06:52:28.549Z,3288
2017-03-21T06:53:09.022Z,3448
2017-03-21T06:53:49.503Z,3452
2017-03-21T06:54:29.997Z,3388
2017-03-21T06:55:10.486Z,3284
2017-03-21T06:55:50.950Z,3168
2017-03-21T06:56:31.425Z,3068
2017-03-21T06:57:11.902Z,3016
2017-03-21T06:57:52.411Z,3012
2017-03-21T06:58:32.893Z,3016
2017-03-21T06:59:13.378Z,3008
2017-03-21T06:59:53.844Z,3008
2017-03-21T07:00:34.342Z,3068
2017-03-21T07:01:14.822Z,3120
2017-03-21T07:01:55.307Z,3172
2017-03-21T07:02:35.806Z,3232
2017-03-21T07:03:16.304Z,3220
2017-03-21T07:03:56.842Z,3216
2017-03-21T07:04:37.329Z,3208
2017-03-21T07:05:17.820Z,3212
2017-03-21T07:05:58.297Z,3284
2017-03-21T07:06:38.767Z,3360
2017-03-21T07:07:19.264Z,3396
2017-03-21T07:07:59.760Z,3432
2017-03-21T07:08:40.248Z,3444
2017-03-21T07:10:37.892Z,3092
2017-03-21T07:11:18.328Z,3084
2017-03-21T07:11:58.797Z,3068
2017-03-21T07:12:39.310Z,3148
2017-03-21T07:13:19.782Z,3236
2017-03-21T07:14:00.272Z,3240
2017-03-21T07:14:40.732Z,3240
2017-03-21T07:15:21.233Z,3180
2017-03-21T07:16:01.732Z,3216
2017-03-21T07:16:42.242Z,3264
2017-03-21T07:17:22.701Z,3296
2017-03-21T07:18:03.365Z,3348
2017-03-21T07:18:44.236Z,3432
2017-03-21T07:19:24.794Z,3580
2017-03-21T07:20:05.359Z,3740
2017-03-21T07:20:45.837Z,3876
2017-03-21T07:21:26.316Z,3972
2017-03-21T07:23:44.435Z,4224
2017-03-21T07:24:24.907Z,4108
2017-03-21T07:25:05.375Z,4004
2017-03-21T07:25:45.840Z,3900
2017-03-21T07:26:26.304Z,3852
2017-03-21T07:27:06.779Z,3816
2017-03-21T07:27:47.268Z,3776
2017-03-21T07:28:27.730Z,3776
2017-03-21T07:29:08.254Z,3852
2017-03-21T07:29:48.744Z,4008
2017-03-21T07:30:29.225Z,4236
2017-03-21T07:31:09.724Z,4552
2017-03-21T07:31:50.203Z,4820
2017-03-21T07:32:30.683Z,5092
2017-03-21T07:33:11.161Z,5324
2017-03-21T07:33:51.661Z,5600
2017-03-21T07:34:32.155Z,5836
2017-03-21T07:35:12.676Z,6028
2017-03-21T07:35:53.153Z,6176
2017-03-21T07:36:33.655Z,6220
2017-03-21T07:37:14.166Z,6268
2017-03-21T07:37:54.648Z,6240
2017-03-21T07:38:35.181Z,6084
2017-03-21T07:39:15.725Z,5908
2017-03-21T07:39:56.194Z,5860
2017-03-21T07:40:36.659Z,5944
2017-03-21T07:41:17.212Z,6004
2017-03-21T07:41:57.779Z,6080
2017-03-21T07:42:38.254Z,6140
2017-03-21T07:43:18.727Z,6180
2017-03-21T07:43:59.213Z,6188
2017-03-21T07:44:39.704Z,6144
2017-03-21T07:45:20.204Z,5992
2017-03-21T07:46:00.694Z,5848
2017-03-21T07:46:41.181Z,5632
2017-03-21T07:47:21.684Z,5364
2017-03-21T07:48:02.181Z,5264
2017-03-21T07:48:42.667Z,5212
2017-03-21T07:49:23.155Z,5244
2017-03-21T07:50:03.674Z,5256
2017-03-21T07:50:44.149Z,5364
2017-03-21T07:51:24.638Z,5456
2017-03-21T07:52:05.123Z,5416
2017-03-21T07:52:45.601Z,5292
2017-03-21T07:53:26.075Z,4976
2017-03-21T07:54:06.550Z,4676
2017-03-21T07:54:47.044Z,4268
2017-03-21T07:55:27.548Z,3936
2017-03-21T07:56:08.041Z,3732
2017-03-21T07:56:48.537Z,3616
2017-03-21T07:57:29.025Z,3476
2017-03-21T07:58:09.510Z,3376
2017-03-21T07:58:50.611Z,3456
2017-03-21T07:59:31.122Z,3532
2017-03-21T08:00:11.592Z,3556
2017-03-21T08:00:52.051Z,3548
2017-03-21T08:01:32.553Z,3604
2017-03-21T08:02:13.064Z,3696
2017-03-21T08:02:53.608Z,3800
2017-03-21T08:03:34.128Z,3920
2017-03-21T08:04:14.663Z,4072
2017-03-21T08:04:55.179Z,4232
2017-03-21T08:05:35.686Z,4396
2017-03-21T08:06:16.178Z,4548
2017-03-21T08:06:56.676Z,4692
2017-03-21T08:07:37.165Z,4900
2017-03-21T08:08:17.637Z,5144
2017-03-21T08:08:58.097Z,5376
2017-03-21T08:09:38.612Z,5560
2017-03-21T08:10:19.100Z,5760
2017-03-21T08:12:31.840Z,5800
2017-03-21T08:13:12.430Z,5760
2017-03-21T08:13:52.942Z,5740
2017-03-21T08:14:33.390Z,5688
2017-03-21T08:15:13.885Z,5660
2017-03-21T08:15:54.430Z,5560
2017-03-21T08:16:34.932Z,5484
2017-03-21T08:17:15.426Z,5416
2017-03-21T08:17:55.922Z,5372
2017-03-21T08:18:36.388Z,5424
2017-03-21T08:19:16.869Z,5440
2017-03-21T08:19:57.355Z,5572
2017-03-21T08:20:37.824Z,5652
2017-03-21T08:21:18.315Z,5748
2017-03-21T08:21:58.792Z,5788
2017-03-21T08:22:39.305Z,5728
2017-03-21T08:23:19.778Z,5728
2017-03-21T08:24:00.301Z,5808
2017-03-21T08:24:40.786Z,5936
2017-03-21T08:25:21.269Z,6088
2017-03-21T08:26:01.774Z,6320
2017-03-21T08:26:42.262Z,6548
2017-03-21T08:27:22.948Z,6768
2017-03-21T08:28:03.478Z,6980
2017-03-21T08:28:43.948Z,7304
2017-03-21T08:29:24.399Z,7520
2017-03-21T08:30:04.980Z,7476
2017-03-21T08:30:45.429Z,7172
2017-03-21T08:31:25.888Z,6788
2017-03-21T08:32:06.384Z,6384
2017-03-21T08:32:46.819Z,6088
2017-03-21T08:33:27.806Z,5908
2017-03-21T08:34:08.263Z,5912
2017-03-21T08:34:48.796Z,5952
2017-03-21T08:35:29.397Z,5900
2017-03-21T08:36:09.900Z,5764
2017-03-21T08:36:50.358Z,5604
2017-03-21T08:37:30.871Z,5416
2017-03-21T08:38:11.377Z,5248
2017-03-21T08:38:51.834Z,5224
2017-03-21T08:39:32.347Z,5368
2017-03-21T08:40:12.843Z,5588
2017-03-21T08:40:53.346Z,5864
2017-03-21T08:41:33.835Z,6344
2017-03-21T08:42:14.363Z,6876
2017-03-21T08:44:47.402Z,8984
2017-03-21T08:45:27.914Z,9320
2017-03-21T08:46:08.394Z,9592
2017-03-21T08:46:48.876Z,9408
2017-03-21T08:47:29.325Z,8756
2017-03-21T08:48:09.893Z,8212
2017-03-21T08:48:50.394Z,7828
2017-03-21T08:49:30.853Z,7824
2017-03-21T08:50:11.323Z,8120
2017-03-21T08:50:51.811Z,8456
2017-03-21T08:51:32.269Z,8744
2017-03-21T08:52:12.704Z,9040
2017-03-21T08:52:53.151Z,9500
2017-03-21T08:53:33.627Z,9808
2017-03-21T08:54:14.095Z,9848
2017-03-21T08:54:54.592Z,9752
2017-03-21T08:55:35.100Z,9580
2017-03-21T08:56:15.572Z,9644
2017-03-21T08:56:56.032Z,9688
2017-03-21T08:57:36.506Z,9760
2017-03-21T08:58:16.991Z,9740
2017-03-21T08:58:57.507Z,9744
2017-03-21T08:59:37.978Z,9724
2017-03-21T09:00:18.456Z,9724
2017-03-21T09:00:58.944Z,9776
2017-03-21T09:01:39.413Z,9868
2017-03-21T09:02:19.928Z,9860
2017-03-21T09:03:00.433Z,9800
2017-03-21T09:03:40.917Z,9768
2017-03-21T09:04:21.390Z,9772
2017-03-21T09:05:01.975Z,9848
2017-03-21T09:05:42.478Z,9964
2017-03-21T09:06:22.959Z,10044
2017-03-21T09:07:03.452Z,10132
2017-03-21T09:07:43.955Z,10232
2017-03-21T09:08:24.427Z,10440
2017-03-21T09:09:04.870Z,10716
2017-03-21T09:09:45.343Z,10936
2017-03-21T09:10:25.824Z,11060
2017-03-21T09:11:06.327Z,11072
2017-03-21T09:11:46.770Z,11196
2017-03-21T09:12:27.271Z,11168
2017-03-21T09:13:07.793Z,10964
2017-03-21T09:13:48.319Z,10660
2017-03-21T09:16:21.350Z,10800
2017-03-21T09:17:01.836Z,11552
2017-03-21T09:17:42.313Z,12396
2017-03-21T09:18:22.824Z,13424
2017-03-21T09:19:03.340Z,14712
2017-03-21T09:19:43.800Z,15200
2017-03-21T09:20:24.288Z,15884
2017-03-21T09:21:04.770Z,16492
2017-03-21T09:21:45.217Z,17192
2017-03-21T09:22:25.677Z,17728
2017-03-21T09:23:06.151Z,18208
2017-03-21T09:23:46.586Z,18432
2017-03-21T09:24:27.122Z,18624
2017-03-21T09:25:07.621Z,19360
2017-03-21T09:25:48.199Z,19648
2017-03-21T09:26:28.708Z,19936
2017-03-21T09:27:09.193Z,20576
2017-03-21T09:27:49.681Z,19552
2017-03-21T09:28:30.214Z,18624
2017-03-21T09:29:10.710Z,19840
2017-03-21T09:29:51.194Z,23712
2017-03-21T09:30:31.681Z,16116
2017-03-21T09:31:12.199Z,14724
2017-03-21T09:31:52.650Z,13676
2017-03-21T09:32:33.158Z,12836
2017-03-21T09:34:45.910Z,11984
2017-03-21T09:35:26.390Z,12048
2017-03-21T09:36:06.911Z,12172
2017-03-21T09:36:47.412Z,12196
2017-03-21T09:37:27.924Z,12296
2017-03-21T09:38:08.405Z,12404
2017-03-21T09:38:48.937Z,12824
2017-03-21T09:39:29.427Z,13260
2017-03-21T09:40:09.936Z,13648
2017-03-21T09:40:50.400Z,13880
2017-03-21T09:41:30.865Z,13716
2017-03-21T09:42:11.322Z,13620
2017-03-21T09:42:51.828Z,13580
2017-03-21T09:43:32.370Z,13548
2017-03-21T09:44:12.840Z,13328
2017-03-21T09:44:53.348Z,13220
2017-03-21T09:45:33.837Z,13316
2017-03-21T09:46:14.310Z,12784
2017-03-21T09:46:54.801Z,12808
2017-03-21T09:47:35.290Z,13048
2017-03-21T09:48:15.773Z,13324
2017-03-21T09:48:56.255Z,13468
2017-03-21T09:49:36.831Z,13332
2017-03-21T09:50:17.365Z,13080
2017-03-21T09:50:57.910Z,12924
2017-03-21T09:51:38.425Z,12024
2017-03-21T09:52:18.912Z,10256
2017-03-21T09:52:59.458Z,9484
2017-03-21T09:53:40.665Z,9836